< < Back
Terminal Aerodrome Forecast


Current Version              Previous Versions:   1  2  3  4  5  6  7  8  9  

Terminal Aerodrome Forecast

966
FTUS42 KCHS 300535
TAFSAV
TAF
KSAV 300535Z 3006/3106 VRB04KT P6SM SCT015
     FM301100 VRB04KT P6SM VCSH SCT015 BKN035
     FM301500 09008KT P6SM VCSH SCT020 BKN040
      TEMPO 3015/3019 5SM -SHRA BR BKN030
     FM301900 12012G18KT P6SM SCT035
     FM310030 12004KT P6SM FEW025=



Latest METAR

023
SAUS80 KWBC 301200 RRA
MTRSAV
METAR KSAV 301153Z 05004KT 10SM FEW015 SCT025TCU SCT080 21/21 A3016 RMK
AO2 SLP212 TCU E-S T02110206 10217 20194 53011 $


USA.gov is the U.S. government's official web portal to all federal, state and local government web resources and services.